Time;durP1;ratioP1;P1;durP2;ratioP2;P2;SDS_P1;SDS_P2;PMS_P1;PMS_P2;Temp;Humidity;BMP_temperature;BMP_pressure;BME280_temperature;BME280_humidity;BME280_pressure;Samples;Min_cycle;Max_cycle;Signal;HPM_P1;HPM_P2
2023/04/30 00:01:53;;;;;;;2.40;1.10;;;;;;;9.18;61.76;101588.66;15685561;28;20073;-52
2023/04/30 00:09:27;;;;;;;0.70;0.50;;;;;;;8.93;62.00;101596.03;15683705;28;20509;-51
2023/04/30 00:17:00;;;;;;;0.55;0.45;;;;;;;8.93;61.81;101596.03;15684279;28;20127;-52
2023/04/30 00:24:33;;;;;;;4.00;1.20;;;;;;;8.78;61.31;101569.22;15683628;28;20098;-53
2023/04/30 00:32:06;;;;;;;0.28;0.20;;;;;;;8.61;62.31;101610.47;15683889;28;20045;-52
2023/04/30 00:39:40;;;;;;;1.20;0.77;;;;;;;8.42;62.56;101619.75;15665539;28;20045;-54
2023/04/30 00:47:13;;;;;;;0.20;0.10;;;;;;;8.09;63.74;101619.03;15649270;28;20102;-50
2023/04/30 00:54:49;;;;;;;0.40;0.40;;;;;;;8.18;62.02;101645.56;15665650;28;20098;-52
2023/04/30 01:02:23;;;;;;;0.98;0.40;;;;;;;8.36;60.43;101650.72;15664547;28;20052;-49
2023/04/30 01:09:57;;;;;;;0.75;0.55;;;;;;;8.25;60.85;101651.06;15663448;28;20041;-48
2023/04/30 01:17:35;;;;;;;0.82;0.47;;;;;;;8.26;60.34;101665.28;15663235;28;20051;-51
2023/04/30 01:25:25;;;;;;;0.00;0.00;;;;;;;8.19;60.56;101662.44;15662641;28;20111;-52
2023/04/30 01:33:00;;;;;;;0.20;0.20;;;;;;;7.95;60.85;101671.38;15681809;28;20466;-51
2023/04/30 01:40:42;;;;;;;0.10;0.10;;;;;;;7.85;61.34;101673.41;15662035;28;20124;-51
2023/04/30 01:48:27;;;;;;;0.10;0.10;;;;;;;7.68;61.98;101680.59;15644209;28;20068;-52
2023/04/30 01:56:04;;;;;;;0.70;0.35;;;;;;;7.29;62.59;101693.78;15659997;28;20033;-52
2023/04/30 02:03:38;;;;;;;0.22;0.20;;;;;;;7.10;63.38;101703.75;15676342;28;20048;-52
2023/04/30 02:11:11;;;;;;;0.22;0.20;;;;;;;6.68;64.96;101713.63;15659184;28;20489;-50
2023/04/30 02:18:45;;;;;;;0.00;0.00;;;;;;;6.16;66.64;101725.22;15658907;28;20405;-52
2023/04/30 02:26:18;;;;;;;1.65;0.85;;;;;;;6.21;65.98;101732.75;15675408;28;20032;-53
2023/04/30 02:33:52;;;;;;;3.97;0.67;;;;;;;5.96;67.69;101739.72;15674252;28;20143;-54
2023/04/30 02:41:25;;;;;;;0.60;0.20;;;;;;;6.23;66.29;101738.72;15657445;28;20039;-52
2023/04/30 02:49:03;;;;;;;0.00;0.00;;;;;;;6.14;65.91;101741.34;15674179;28;20048;-50
2023/04/30 02:57:16;;;;;;;1.08;0.55;;;;;;;6.22;65.84;101750.41;15663790;28;20051;-52
2023/04/30 03:04:58;;;;;;;0.28;0.28;;;;;;;6.03;65.81;101752.28;15673753;28;20171;-53
2023/04/30 03:12:31;;;;;;;0.00;0.00;;;;;;;6.04;65.40;101769.94;15674438;28;20041;-51
2023/04/30 03:20:07;;;;;;;0.10;0.10;;;;;;;5.89;65.95;101777.63;15656613;28;20045;-52
2023/04/30 03:27:39;;;;;;;2.33;0.32;;;;;;;5.48;66.88;101778.22;15672419;28;20512;-52
2023/04/30 03:35:15;;;;;;;0.17;0.10;;;;;;;5.30;68.05;101780.88;15655079;28;20467;-53
2023/04/30 03:42:48;;;;;;;1.88;0.70;;;;;;;5.44;67.90;101784.84;15674885;28;20053;-50
2023/04/30 03:50:22;;;;;;;0.63;0.20;;;;;;;5.11;68.95;101785.31;15672369;28;20096;-50
2023/04/30 03:57:55;;;;;;;1.42;0.52;;;;;;;5.37;69.06;101800.59;15672044;28;20133;-52
2023/04/30 04:05:30;;;;;;;0.47;0.32;;;;;;;5.36;68.99;101809.53;15655298;28;20065;-53
2023/04/30 04:13:04;;;;;;;0.28;0.28;;;;;;;5.48;68.74;101816.34;15671882;28;20112;-50
2023/04/30 04:20:38;;;;;;;0.15;0.15;;;;;;;5.61;68.57;101819.47;15640369;28;20091;-53
2023/04/30 04:28:11;;;;;;;0.95;0.45;;;;;;;5.44;68.68;101833.59;15660488;28;20355;-52
2023/04/30 04:35:46;;;;;;;0.30;0.30;;;;;;;5.67;68.29;101836.69;15656785;28;20103;-50
2023/04/30 04:43:20;;;;;;;10.07;0.85;;;;;;;5.98;67.98;101839.00;15683877;28;20060;-51
2023/04/30 04:50:55;;;;;;;0.40;0.32;;;;;;;6.22;67.58;101851.72;15682411;28;20423;-48
2023/04/30 04:58:31;;;;;;;0.20;0.17;;;;;;;6.27;67.53;101865.41;15665407;28;20553;-52
2023/04/30 05:06:06;;;;;;;0.30;0.30;;;;;;;6.56;67.05;101878.47;15681018;28;20037;-51
2023/04/30 05:13:38;;;;;;;1.38;0.63;;;;;;;6.25;67.54;101880.69;15681925;28;20037;-49
2023/04/30 05:21:13;;;;;;;0.30;0.30;;;;;;;7.10;64.86;101889.81;15682127;28;20549;-50
2023/04/30 05:28:47;;;;;;;1.33;0.60;;;;;;;7.11;63.11;101904.81;15681832;28;20120;-49
2023/04/30 05:36:21;;;;;;;0.30;0.30;;;;;;;7.48;61.72;101901.00;15681141;28;20518;-51
2023/04/30 05:43:54;;;;;;;0.47;0.47;;;;;;;7.85;61.15;101924.66;15671714;28;20044;-49
2023/04/30 05:51:28;;;;;;;1.27;0.70;;;;;;;9.95;55.84;101905.69;15661272;28;20045;-49
2023/04/30 05:59:00;;;;;;;1.45;0.98;;;;;;;10.94;51.40;101911.94;15679435;28;20045;-49
2023/04/30 06:06:35;;;;;;;0.93;0.80;;;;;;;13.26;45.70;101917.06;15661874;28;20102;-54
2023/04/30 06:14:07;;;;;;;0.55;0.52;;;;;;;13.45;44.32;101918.22;15677337;28;20417;-53
2023/04/30 06:21:43;;;;;;;0.37;0.23;;;;;;;13.65;44.14;101926.38;15678413;28;20044;-52
2023/04/30 06:29:15;;;;;;;2.45;0.63;;;;;;;12.00;48.34;101940.25;15660272;28;20033;-53
2023/04/30 06:36:50;;;;;;;1.30;0.33;;;;;;;11.75;49.82;101928.97;15661774;28;20041;-51
2023/04/30 06:44:22;;;;;;;1.73;1.02;;;;;;;12.26;48.35;101933.47;15677265;28;20048;-51
2023/04/30 06:51:57;;;;;;;1.17;0.80;;;;;;;11.88;48.36;101938.22;15642708;28;20049;-51
2023/04/30 06:59:30;;;;;;;1.15;0.63;;;;;;;11.30;49.66;101935.41;15676176;28;20510;-51
2023/04/30 07:07:04;;;;;;;3.20;0.90;;;;;;;12.47;46.08;101940.72;15675126;28;20106;-51
2023/04/30 07:14:37;;;;;;;4.28;0.85;;;;;;;13.45;44.01;101941.66;15657779;28;20258;-51
2023/04/30 07:22:11;;;;;;;0.63;0.40;;;;;;;13.53;43.18;101928.00;15674687;28;20048;-51
2023/04/30 07:29:43;;;;;;;1.48;0.52;;;;;;;14.57;41.97;101926.81;15673519;28;20041;-51
2023/04/30 07:37:18;;;;;;;1.80;0.40;;;;;;;15.54;40.13;101920.63;15674934;28;20134;-51
2023/04/30 07:44:51;;;;;;;0.25;0.20;;;;;;;14.74;40.53;101936.19;15656868;28;20049;-53
2023/04/30 07:52:25;;;;;;;0.63;0.50;;;;;;;13.51;42.74;101946.25;15655761;28;20114;-51
2023/04/30 07:59:58;;;;;;;0.45;0.35;;;;;;;13.32;43.76;101941.56;15674198;28;20410;-51
2023/04/30 08:07:32;;;;;;;;;;;;;;;12.43;47.20;101948.34;15674611;28;20136;-50
2023/04/30 08:15:07;;;;;;;0.40;0.32;;;;;;;13.65;43.00;101949.81;15682851;28;19952;-52
2023/04/30 08:22:41;;;;;;;0.00;0.00;;;;;;;14.08;43.01;101961.19;15668171;28;20068;-51
2023/04/30 08:30:14;;;;;;;0.57;0.57;;;;;;;14.00;41.56;101953.28;15684189;28;20045;-52
2023/04/30 08:37:48;;;;;;;0.20;0.20;;;;;;;13.12;41.28;101957.59;15665816;28;20529;-51
2023/04/30 08:45:22;;;;;;;0.40;0.30;;;;;;;15.23;39.24;101956.50;15683467;28;20071;-48
2023/04/30 08:52:56;;;;;;;;;;;;;;;14.49;40.71;101950.28;15685024;28;20037;-50
2023/04/30 09:00:31;;;;;;;0.77;0.50;;;;;;;13.48;39.92;101957.44;15683071;28;20007;-50
2023/04/30 09:08:07;;;;;;;0.65;0.40;;;;;;;15.64;38.72;101958.91;15683160;28;20124;-50
2023/04/30 09:15:41;;;;;;;0.22;0.17;;;;;;;14.35;37.41;101955.84;15674589;28;20436;-53
2023/04/30 09:23:14;;;;;;;1.02;0.47;;;;;;;15.23;34.45;101951.91;15683311;28;20056;-52
2023/04/30 09:30:47;;;;;;;0.60;0.28;;;;;;;14.98;35.73;101959.88;15666942;28;20053;-51
2023/04/30 09:38:29;;;;;;;0.03;0.03;;;;;;;15.23;36.30;101968.13;15661102;28;20053;-54
2023/04/30 09:46:03;;;;;;;0.70;0.47;;;;;;;16.05;31.36;101963.09;15679038;28;20037;-51
2023/04/30 09:53:38;;;;;;;0.55;0.17;;;;;;;16.59;34.15;101954.38;15676948;28;20096;-51
2023/04/30 10:01:11;;;;;;;0.47;0.28;;;;;;;14.79;33.82;101945.31;15677149;28;20047;-55
2023/04/30 10:08:46;;;;;;;;;;;;;;;15.49;30.30;101945.59;15659526;28;20127;-51
2023/04/30 10:16:27;;;;;;;0.20;0.15;;;;;;;15.97;34.11;101941.69;15674770;28;20362;-51
2023/04/30 10:24:02;;;;;;;7.68;0.93;;;;;;;16.40;31.96;101952.66;15676542;28;20127;-53
2023/04/30 10:31:35;;;;;;;12.27;0.52;;;;;;;16.64;31.59;101934.75;15674698;28;20033;-50
2023/04/30 10:39:10;;;;;;;0.45;0.40;;;;;;;16.30;32.12;101928.75;15672339;28;20048;-51
2023/04/30 10:46:42;;;;;;;0.10;0.10;;;;;;;16.77;33.93;101914.88;15672076;28;20583;-49
2023/04/30 10:54:25;;;;;;;1.90;0.45;;;;;;;15.43;33.57;101915.84;15656003;28;20091;-51
2023/04/30 11:02:00;;;;;;;0.10;0.10;;;;;;;16.10;33.38;101919.94;15654608;28;20057;-48
2023/04/30 11:09:40;;;;;;;0.10;0.10;;;;;;;16.33;35.71;101912.06;15656348;28;20443;-51
2023/04/30 11:17:21;;;;;;;0.20;0.20;;;;;;;17.55;30.42;101906.09;15668433;28;20094;-51
2023/04/30 11:25:04;;;;;;;2.42;0.40;;;;;;;17.24;31.25;101904.38;15655716;28;20044;-49
2023/04/30 11:32:38;;;;;;;0.40;0.40;;;;;;;18.70;30.01;101894.16;15646994;28;20143;-48
2023/04/30 11:40:13;;;;;;;1.35;0.80;;;;;;;17.94;31.36;101888.44;15675909;28;20434;-47
2023/04/30 11:47:48;;;;;;;0.77;0.65;;;;;;;16.83;31.05;101886.84;15677308;28;20072;-52
2023/04/30 11:55:24;;;;;;;0.75;0.40;;;;;;;18.39;30.92;101876.28;15676288;28;20486;-51
2023/04/30 12:02:59;;;;;;;0.50;0.43;;;;;;;18.31;29.85;101878.25;15661679;28;20049;-50
2023/04/30 12:10:33;;;;;;;0.88;0.45;;;;;;;17.88;31.36;101864.94;15679884;28;20037;-52
2023/04/30 12:18:12;;;;;;;0.30;0.30;;;;;;;19.43;28.99;101879.16;15677040;28;20083;-54
2023/04/30 12:25:46;;;;;;;0.45;0.20;;;;;;;20.47;28.45;101866.13;15683305;28;20633;-49
2023/04/30 12:33:19;;;;;;;2.45;0.65;;;;;;;19.02;27.76;101865.53;15681834;28;20033;-49
2023/04/30 12:40:53;;;;;;;0.43;0.30;;;;;;;18.41;30.65;101857.84;15681362;28;20044;-47
2023/04/30 12:48:27;;;;;;;0.17;0.13;;;;;;;18.33;31.44;101853.59;15663471;28;20037;-53
2023/04/30 12:56:11;;;;;;;;;;;;;;;20.87;28.73;101845.97;15663073;28;20486;-50
2023/04/30 13:03:43;;;;;;;5.93;0.50;;;;;;;20.88;27.82;101848.44;15673676;28;19928;-48
2023/04/30 13:11:17;;;;;;;0.68;0.35;;;;;;;21.95;25.76;101837.94;15662571;28;20041;-53
2023/04/30 13:18:50;;;;;;;0.52;0.40;;;;;;;20.78;26.87;101845.56;15667113;28;20111;-48
2023/04/30 13:26:25;;;;;;;1.50;0.47;;;;;;;21.41;24.05;101840.69;15643057;28;20037;-49
2023/04/30 13:33:57;;;;;;;1.70;0.30;;;;;;;20.93;25.58;101841.41;15677256;28;20040;-50
2023/04/30 13:41:31;;;;;;;2.40;0.75;;;;;;;19.42;25.95;101828.50;15659112;28;20041;-52
2023/04/30 13:49:04;;;;;;;1.95;0.65;;;;;;;17.94;29.68;101823.25;15658712;28;20462;-50
2023/04/30 13:56:38;;;;;;;0.45;0.40;;;;;;;17.74;31.18;101807.28;15656954;28;20086;-49
2023/04/30 14:04:10;;;;;;;1.20;0.85;;;;;;;18.06;29.33;101798.84;15659325;28;20518;-51
2023/04/30 14:11:45;;;;;;;0.55;0.28;;;;;;;17.15;32.39;101808.06;15673812;28;20045;-47
2023/04/30 14:19:18;;;;;;;0.30;0.10;;;;;;;17.18;30.77;101800.28;15673520;28;20091;-47
2023/04/30 14:26:52;;;;;;;0.25;0.17;;;;;;;15.91;31.28;101796.34;15670730;28;20038;-47
2023/04/30 14:34:26;;;;;;;0.55;0.20;;;;;;;16.98;32.45;101792.41;15654928;28;20568;-52
2023/04/30 14:42:00;;;;;;;0.22;0.20;;;;;;;16.14;32.80;101783.03;15672159;28;20095;-50
2023/04/30 14:49:33;;;;;;;1.00;0.70;;;;;;;16.98;31.29;101773.41;15656099;28;20041;-49
2023/04/30 14:57:07;;;;;;;0.20;0.13;;;;;;;15.85;31.89;101781.78;15669370;28;20144;-48
2023/04/30 15:04:44;;;;;;;0.60;0.40;;;;;;;15.09;30.99;101777.22;15669878;28;20447;-49
2023/04/30 15:12:18;;;;;;;1.00;0.43;;;;;;;16.12;32.12;101781.56;15658190;28;20048;-51
2023/04/30 15:19:52;;;;;;;1.02;0.52;;;;;;;15.24;30.54;101766.94;15669080;28;20040;-50
2023/04/30 15:27:27;;;;;;;0.73;0.52;;;;;;;15.74;31.84;101761.66;15652344;28;20064;-50
2023/04/30 15:35:00;;;;;;;1.27;0.50;;;;;;;15.72;31.66;101760.25;15659095;28;20434;-47
2023/04/30 15:42:37;;;;;;;2.10;0.60;;;;;;;15.86;32.85;101756.38;15659849;28;20070;-52
2023/04/30 15:50:10;;;;;;;0.00;0.00;;;;;;;16.27;31.49;101757.66;15669968;28;20083;-49
2023/04/30 15:57:44;;;;;;;;;;;;;;;16.11;33.13;101755.53;15666497;28;20398;-48
2023/04/30 16:05:17;;;;;;;0.30;0.13;;;;;;;16.18;31.27;101750.88;15672772;28;19920;-47
2023/04/30 16:12:52;;;;;;;0.85;0.55;;;;;;;15.93;31.40;101745.50;15652805;28;20437;-48
2023/04/30 16:20:26;;;;;;;3.03;0.35;;;;;;;15.29;32.72;101741.94;15672434;28;20033;-51
2023/04/30 16:28:00;;;;;;;1.02;0.45;;;;;;;15.29;32.58;101734.69;15670668;28;20069;-50
2023/04/30 16:35:32;;;;;;;0.30;0.30;;;;;;;15.37;34.09;101727.34;15655672;28;20049;-50
2023/04/30 16:43:06;;;;;;;0.40;0.30;;;;;;;14.97;32.09;101731.09;15684298;28;20045;-53
2023/04/30 16:50:39;;;;;;;1.52;0.63;;;;;;;15.45;33.71;101727.09;15682874;28;20140;-51
2023/04/30 16:58:13;;;;;;;1.90;0.50;;;;;;;15.07;34.57;101719.81;15647640;28;20561;-49
2023/04/30 17:05:47;;;;;;;7.82;0.60;;;;;;;14.55;36.39;101716.28;15682097;28;20098;-52
2023/04/30 17:13:22;;;;;;;0.75;0.28;;;;;;;15.24;35.88;101725.53;15663488;28;20098;-53
2023/04/30 17:20:56;;;;;;;4.07;0.95;;;;;;;14.73;35.77;101715.59;15664140;28;20091;-49
2023/04/30 17:28:31;;;;;;;0.32;0.32;;;;;;;14.68;36.49;101720.81;15679799;28;20064;-52
2023/04/30 17:36:04;;;;;;;3.40;0.60;;;;;;;14.74;36.65;101723.50;15680022;28;20071;-52
2023/04/30 17:43:38;;;;;;;1.25;0.40;;;;;;;14.15;38.45;101723.63;15605156;28;20128;-53
2023/04/30 17:51:12;;;;;;;0.75;0.55;;;;;;;13.27;38.96;101719.19;15662525;28;20051;-53
2023/04/30 17:58:46;;;;;;;2.60;0.90;;;;;;;13.32;40.10;101715.06;15678444;28;20052;-53
2023/04/30 18:06:19;;;;;;;4.43;1.10;;;;;;;13.05;42.22;101723.03;15680097;28;20084;-52
2023/04/30 18:13:53;;;;;;;2.53;0.83;;;;;;;12.98;43.22;101714.94;15678261;28;20041;-50
2023/04/30 18:21:25;;;;;;;2.05;1.17;;;;;;;13.09;41.56;101720.78;15677442;28;20257;-52
2023/04/30 18:28:59;;;;;;;2.57;1.13;;;;;;;12.66;42.36;101721.03;15677553;28;20069;-51
2023/04/30 18:36:32;;;;;;;2.10;1.50;;;;;;;12.82;42.76;101719.84;15674339;28;20044;-51
2023/04/30 18:44:12;;;;;;;3.08;2.08;;;;;;;12.76;43.59;101726.88;15630142;28;20083;-50
2023/04/30 18:51:45;;;;;;;4.72;2.15;;;;;;;12.79;43.97;101729.19;15677474;28;20049;-49
2023/04/30 18:59:20;;;;;;;6.70;4.03;;;;;;;12.62;43.46;101736.75;15676812;28;20045;-51
2023/04/30 19:06:54;;;;;;;16.13;6.70;;;;;;;12.49;43.77;101742.06;15676046;28;20071;-50
2023/04/30 19:14:28;;;;;;;13.15;5.72;;;;;;;12.14;45.55;101752.00;15668975;28;20567;-50
2023/04/30 19:22:01;;;;;;;5.00;2.30;;;;;;;11.85;47.63;101744.94;15653547;28;20111;-49
2023/04/30 19:29:38;;;;;;;4.67;0.87;;;;;;;11.53;48.55;101746.25;15654963;28;20045;-49
2023/04/30 19:37:11;;;;;;;3.38;2.45;;;;;;;11.31;48.54;101746.22;15668410;28;20069;-49
2023/04/30 19:44:45;;;;;;;3.97;3.08;;;;;;;10.85;50.53;101751.06;15679896;28;20120;-49
2023/04/30 19:52:18;;;;;;;4.55;2.63;;;;;;;10.75;51.24;101754.03;15672431;28;20505;-51
2023/04/30 19:59:52;;;;;;;6.80;3.17;;;;;;;10.49;51.36;101757.19;15654712;28;20068;-50
2023/04/30 20:07:25;;;;;;;3.85;1.38;;;;;;;10.20;52.91;101758.78;15663247;28;20040;-50
2023/04/30 20:14:59;;;;;;;6.55;4.15;;;;;;;10.17;52.66;101747.59;15672978;28;20194;-49
2023/04/30 20:22:32;;;;;;;3.33;2.10;;;;;;;9.97;52.69;101756.16;15682801;28;20046;-49
2023/04/30 20:30:07;;;;;;;;;;;;;;;9.89;53.53;101752.72;15679171;28;20068;-50
2023/04/30 20:37:40;;;;;;;4.85;2.70;;;;;;;9.31;55.78;101748.78;15681165;28;19921;-50
2023/04/30 20:45:14;;;;;;;3.90;2.10;;;;;;;9.27;55.25;101753.66;15661808;28;20387;-50
2023/04/30 20:52:47;;;;;;;2.50;0.88;;;;;;;9.10;55.41;101746.75;15680829;28;20049;-50
2023/04/30 21:00:22;;;;;;;2.05;1.73;;;;;;;9.02;55.84;101746.78;15680557;28;20045;-50
2023/04/30 21:07:59;;;;;;;8.00;2.63;;;;;;;8.52;56.31;101737.28;15680406;28;20080;-50
2023/04/30 21:15:35;;;;;;;4.72;2.42;;;;;;;8.30;57.23;101741.47;15673368;28;20370;-48
2023/04/30 21:23:07;;;;;;;5.60;3.72;;;;;;;7.98;57.73;101745.91;15678187;28;20148;-50
2023/04/30 21:30:41;;;;;;;4.90;2.73;;;;;;;7.88;59.84;101754.09;15649216;28;20045;-53
2023/04/30 21:38:15;;;;;;;3.25;1.58;;;;;;;7.88;58.94;101746.06;15680008;28;20061;-51
2023/04/30 21:45:49;;;;;;;2.05;1.17;;;;;;;8.15;57.46;101747.53;15645390;28;20124;-53
2023/04/30 21:53:22;;;;;;;2.83;1.52;;;;;;;8.00;59.08;101740.38;15680048;28;20114;-55
2023/04/30 22:00:56;;;;;;;5.50;3.07;;;;;;;8.01;58.95;101744.72;15662305;28;20044;-50
2023/04/30 22:08:29;;;;;;;3.92;1.73;;;;;;;8.08;58.63;101751.91;15660063;28;20110;-51
2023/04/30 22:16:07;;;;;;;2.97;2.00;;;;;;;7.51;59.67;101745.72;15678509;28;20098;-51
2023/04/30 22:23:40;;;;;;;3.60;1.02;;;;;;;7.85;58.55;101740.22;15677715;28;20047;-50
2023/04/30 22:31:14;;;;;;;3.58;1.80;;;;;;;8.00;57.94;101738.53;15675888;28;20528;-48
2023/04/30 22:38:48;;;;;;;10.60;2.42;;;;;;;8.34;56.92;101742.81;15660287;28;20084;-49
2023/04/30 22:46:23;;;;;;;8.43;2.95;;;;;;;8.02;57.19;101731.19;15675688;28;20047;-48
2023/04/30 22:53:56;;;;;;;4.03;2.00;;;;;;;8.23;56.17;101730.63;15658774;28;20049;-47
2023/04/30 23:01:31;;;;;;;4.60;2.47;;;;;;;8.24;56.46;101728.78;15657372;28;20131;-50
2023/04/30 23:09:04;;;;;;;6.00;3.55;;;;;;;7.83;57.21;101720.81;15676235;28;20067;-50
2023/04/30 23:16:38;;;;;;;5.50;1.23;;;;;;;7.90;57.46;101711.97;15676140;28;20041;-48
2023/04/30 23:24:11;;;;;;;4.22;2.17;;;;;;;7.83;57.42;101713.66;15676198;28;20152;-48
2023/04/30 23:31:45;;;;;;;5.97;3.08;;;;;;;7.61;57.76;101704.47;15676378;28;20040;-50
2023/04/30 23:39:18;;;;;;;2.25;1.83;;;;;;;7.48;57.49;101700.63;15641531;28;20049;-49
2023/04/30 23:46:59;;;;;;;3.85;2.15;;;;;;;7.20;58.48;101702.78;15685615;28;20053;-48
2023/04/30 23:54:32;;;;;;;5.05;1.38;;;;;;;7.03;58.95;101697.38;15685959;28;20072;-50
